createdAt,value
2019-01-10T00:00:42.001Z,27.09
2019-01-10T00:03:09.541Z,27.17
2019-01-10T00:05:37.101Z,27.05
2019-01-10T00:08:04.606Z,27.05
2019-01-10T00:10:32.141Z,27.21
2019-01-10T00:12:59.657Z,27.20
2019-01-10T00:15:27.148Z,27.20
2019-01-10T00:17:54.663Z,27.07
2019-01-10T00:20:22.166Z,27.37
2019-01-10T00:22:49.691Z,27.34
2019-01-10T00:25:17.186Z,27.26
2019-01-10T00:27:44.707Z,27.15
2019-01-10T00:30:13.844Z,27.30
2019-01-10T00:32:41.360Z,27.29
2019-01-10T00:35:09.381Z,27.30
2019-01-10T00:37:36.914Z,27.26
2019-01-10T00:40:06.050Z,27.16
2019-01-10T00:42:33.563Z,27.27
2019-01-10T00:45:01.091Z,27.45
2019-01-10T00:47:28.591Z,27.33
2019-01-10T00:49:56.138Z,27.38
2019-01-10T00:52:23.625Z,27.48
2019-01-10T00:54:51.159Z,27.54
2019-01-10T00:57:18.647Z,27.45
2019-01-10T00:59:46.184Z,27.29
2019-01-10T01:02:13.681Z,27.40
2019-01-10T01:04:41.217Z,27.34
2019-01-10T01:07:08.735Z,27.34
2019-01-10T01:09:36.263Z,27.45
2019-01-10T01:12:03.783Z,27.15
2019-01-10T01:14:31.303Z,27.32
2019-01-10T01:16:58.848Z,27.26
2019-01-10T01:19:26.553Z,27.24
2019-01-10T01:21:54.059Z,27.24
2019-01-10T01:24:21.573Z,27.19
2019-01-10T01:26:49.138Z,27.14
2019-01-10T01:29:18.490Z,27.27
2019-01-10T01:31:45.896Z,27.14
2019-01-10T01:34:13.419Z,27.13
2019-01-10T01:36:40.938Z,27.14
2019-01-10T01:39:08.483Z,27.26
2019-01-10T01:41:35.998Z,26.98
2019-01-10T01:44:03.526Z,27.04
2019-01-10T01:46:31.047Z,27.08
2019-01-10T01:48:58.555Z,27.01
2019-01-10T01:51:26.074Z,27.07
2019-01-10T01:53:53.609Z,27.01
2019-01-10T01:56:21.128Z,27.14
2019-01-10T01:58:48.637Z,27.05
2019-01-10T02:01:16.147Z,26.93
2019-01-10T02:03:43.707Z,26.98
2019-01-10T02:06:11.214Z,27.06
2019-01-10T02:08:38.715Z,27.01
2019-01-10T02:11:06.239Z,26.97
2019-01-10T02:13:33.748Z,27.02
2019-01-10T02:16:01.275Z,27.14
2019-01-10T02:18:28.762Z,26.92
2019-01-10T02:20:56.306Z,27.05
2019-01-10T02:23:23.861Z,26.98
2019-01-10T02:25:51.404Z,27.18
2019-01-10T02:28:18.904Z,27.03
2019-01-10T02:30:46.412Z,27.09
2019-01-10T02:33:13.928Z,27.07
2019-01-10T02:35:41.434Z,27.07
2019-01-10T02:38:08.947Z,27.06
2019-01-10T02:40:36.468Z,27.01
2019-01-10T02:43:03.990Z,27.04
2019-01-10T02:45:31.496Z,27.15
2019-01-10T02:47:59.028Z,27.02
2019-01-10T02:50:26.538Z,27.06
2019-01-10T02:52:54.105Z,27.05
2019-01-10T02:55:21.610Z,27.23
2019-01-10T02:57:49.142Z,27.02
2019-01-10T03:00:21.576Z,27.16
2019-01-10T03:02:49.061Z,27.24
2019-01-10T03:05:16.590Z,27.23
2019-01-10T03:07:44.098Z,27.17
2019-01-10T03:10:13.091Z,27.26
2019-01-10T03:12:40.600Z,27.22
2019-01-10T03:15:08.203Z,27.22
2019-01-10T03:17:35.712Z,27.30
2019-01-10T03:20:04.300Z,27.12
2019-01-10T03:22:31.818Z,27.12
2019-01-10T03:24:59.337Z,27.21
2019-01-10T03:27:26.863Z,27.12
2019-01-10T03:29:54.374Z,27.21
2019-01-10T03:32:21.901Z,27.21
2019-01-10T03:34:49.410Z,27.11
2019-01-10T03:37:16.934Z,27.13
2019-01-10T03:39:44.449Z,27.17
2019-01-10T03:42:11.968Z,27.15
2019-01-10T03:44:39.475Z,27.10
2019-01-10T03:47:06.995Z,27.19
2019-01-10T03:49:34.514Z,27.18
2019-01-10T03:52:02.047Z,27.02
2019-01-10T03:54:29.654Z,27.13
2019-01-10T03:56:57.151Z,27.09
2019-01-10T03:59:24.674Z,27.12
2019-01-10T04:01:52.162Z,27.13
2019-01-10T04:04:19.708Z,27.25
2019-01-10T04:06:47.206Z,27.10
2019-01-10T04:09:14.700Z,27.08
2019-01-10T04:11:42.227Z,27.17
2019-01-10T04:14:09.731Z,27.12
2019-01-10T04:16:37.255Z,27.12
2019-01-10T04:19:04.782Z,27.19
2019-01-10T04:21:32.309Z,27.13
2019-01-10T04:23:59.848Z,27.19
2019-01-10T04:26:27.413Z,27.08
2019-01-10T04:28:54.957Z,27.14
2019-01-10T04:31:22.495Z,27.00
2019-01-10T04:33:50.003Z,26.97
2019-01-10T04:36:17.540Z,27.04
2019-01-10T04:38:45.054Z,27.04
2019-01-10T04:41:12.585Z,27.00
2019-01-10T04:43:40.162Z,27.22
2019-01-10T04:46:07.670Z,26.96
2019-01-10T04:48:35.291Z,27.22
2019-01-10T04:51:02.799Z,27.18
2019-01-10T04:53:30.319Z,27.24
2019-01-10T04:55:57.835Z,27.25
2019-01-10T04:58:25.384Z,27.16
2019-01-10T05:00:52.902Z,26.96
2019-01-10T05:03:20.415Z,26.98
2019-01-10T05:05:47.940Z,27.17
2019-01-10T05:08:15.468Z,26.96
2019-01-10T05:10:42.977Z,26.95
2019-01-10T05:13:10.481Z,26.89
2019-01-10T05:15:38.027Z,27.10
2019-01-10T05:18:08.021Z,27.05
2019-01-10T05:20:34.799Z,27.11
2019-01-10T05:23:02.301Z,27.04
2019-01-10T05:25:29.826Z,26.93
2019-01-10T05:27:57.351Z,26.90
2019-01-10T05:30:24.848Z,27.00
2019-01-10T05:32:53.128Z,26.92
2019-01-10T05:35:20.659Z,27.05
2019-01-10T05:37:48.169Z,26.83
2019-01-10T05:40:15.691Z,27.01
2019-01-10T05:42:43.205Z,27.02
2019-01-10T05:45:12.361Z,26.87
2019-01-10T05:47:39.901Z,27.20
2019-01-10T05:50:08.884Z,26.85
2019-01-10T05:52:36.408Z,26.84
2019-01-10T05:55:05.197Z,27.13
2019-01-10T05:57:32.727Z,27.04
2019-01-10T06:00:00.255Z,26.85
2019-01-10T06:02:27.771Z,26.91
2019-01-10T06:04:55.298Z,27.01
2019-01-10T06:07:22.824Z,26.90
2019-01-10T06:09:50.341Z,26.83
2019-01-10T06:12:17.845Z,26.87
2019-01-10T06:14:45.374Z,26.84
2019-01-10T06:17:12.877Z,26.77
2019-01-10T06:19:40.400Z,27.00
2019-01-10T06:22:07.901Z,27.06
2019-01-10T06:24:35.405Z,27.09
2019-01-10T06:27:02.932Z,26.95
2019-01-10T06:29:30.424Z,27.39
2019-01-10T06:31:57.945Z,27.49
2019-01-10T06:34:25.460Z,26.87
2019-01-10T06:36:52.982Z,26.99
2019-01-10T06:39:20.478Z,27.06
2019-01-10T06:41:47.991Z,27.22
2019-01-10T06:44:15.484Z,27.15
2019-01-10T06:46:43.012Z,27.18
2019-01-10T06:49:10.505Z,27.04
2019-01-10T06:51:38.127Z,27.10
2019-01-10T06:54:05.651Z,27.01
2019-01-10T06:56:33.169Z,27.04
2019-01-10T06:59:00.691Z,27.03
2019-01-10T07:01:28.233Z,27.10
2019-01-10T07:03:55.761Z,26.95
2019-01-10T07:06:23.268Z,27.46
2019-01-10T07:08:50.794Z,27.09
2019-01-10T07:11:18.294Z,27.03
2019-01-10T07:13:45.838Z,27.06
2019-01-10T07:16:13.334Z,27.09
2019-01-10T07:18:40.860Z,27.10
2019-01-10T07:21:08.374Z,27.11
2019-01-10T07:23:35.899Z,27.09
2019-01-10T07:26:03.414Z,27.13
2019-01-10T07:28:30.907Z,27.08
2019-01-10T07:30:58.447Z,27.71
2019-01-10T07:33:25.929Z,27.30
2019-01-10T07:35:54.234Z,27.22
2019-01-10T07:38:21.752Z,27.37
2019-01-10T07:40:49.270Z,25.84
2019-01-10T07:43:18.842Z,25.29
2019-01-10T07:45:46.360Z,25.56
2019-01-10T07:48:13.887Z,25.70
2019-01-10T07:50:41.407Z,25.88
2019-01-10T07:53:08.951Z,25.90
2019-01-10T07:55:36.455Z,25.98
2019-01-10T07:58:03.949Z,25.84
2019-01-10T08:00:31.474Z,25.85
2019-01-10T08:02:58.970Z,25.89
2019-01-10T08:05:26.497Z,26.19
2019-01-10T08:07:54.178Z,25.97
2019-01-10T08:10:21.714Z,25.91
2019-01-10T08:12:49.226Z,25.96
2019-01-10T08:15:18.387Z,26.01
2019-01-10T08:17:45.904Z,25.93
2019-01-10T08:20:13.736Z,26.07
2019-01-10T08:22:41.392Z,26.09
2019-01-10T08:25:09.163Z,25.97
2019-01-10T08:27:36.738Z,25.92
2019-01-10T08:30:05.880Z,26.07
2019-01-10T08:32:33.415Z,26.07
2019-01-10T08:35:00.922Z,26.09
2019-01-10T08:37:28.443Z,26.08
2019-01-10T08:39:55.970Z,25.94
2019-01-10T08:42:23.465Z,25.93
2019-01-10T08:44:51.021Z,25.99
2019-01-10T08:47:18.588Z,25.99
2019-01-10T08:49:46.106Z,26.05
2019-01-10T08:52:13.916Z,26.21
2019-01-10T08:54:41.406Z,26.20
2019-01-10T08:57:08.923Z,26.20
2019-01-10T08:59:36.448Z,26.30
2019-01-10T09:02:03.956Z,26.36
2019-01-10T09:04:31.556Z,26.31
2019-01-10T09:06:59.102Z,26.26
2019-01-10T09:09:26.614Z,26.29
2019-01-10T09:11:54.154Z,26.37
2019-01-10T09:14:21.682Z,26.23
2019-01-10T09:16:49.180Z,26.24
2019-01-10T09:19:16.755Z,26.29
2019-01-10T09:21:44.271Z,26.09
2019-01-10T09:24:11.767Z,26.03
2019-01-10T09:26:39.306Z,26.00
2019-01-10T09:29:06.824Z,26.06
2019-01-10T09:31:34.341Z,26.06
2019-01-10T09:34:01.896Z,26.20
2019-01-10T09:36:29.374Z,26.15
2019-01-10T09:38:56.896Z,26.03
2019-01-10T09:41:24.414Z,25.99
2019-01-10T09:43:51.948Z,25.89
2019-01-10T09:46:19.438Z,25.89
2019-01-10T09:48:46.976Z,25.80
2019-01-10T09:51:14.503Z,25.72
2019-01-10T09:53:42.022Z,25.86
2019-01-10T09:56:09.540Z,25.60
2019-01-10T09:58:37.052Z,25.86
2019-01-10T10:01:04.545Z,25.46
2019-01-10T10:03:32.190Z,25.54
2019-01-10T10:06:07.509Z,25.72
2019-01-10T10:08:28.950Z,25.81
2019-01-10T10:10:56.451Z,25.59
2019-01-10T10:13:23.970Z,25.52
2019-01-10T10:15:52.714Z,25.65
2019-01-10T10:18:20.546Z,25.44
2019-01-10T10:20:48.052Z,25.59
2019-01-10T10:23:15.550Z,25.16
2019-01-10T10:25:43.129Z,25.25
2019-01-10T10:28:10.632Z,25.05
2019-01-10T10:30:38.166Z,25.17
2019-01-10T10:33:05.719Z,25.14
2019-01-10T10:35:33.245Z,25.52
2019-01-10T10:38:00.739Z,25.58
2019-01-10T10:40:28.260Z,25.57
2019-01-10T10:42:55.792Z,25.48
2019-01-10T10:45:23.322Z,25.55
2019-01-10T10:47:50.838Z,25.54
2019-01-10T10:50:19.638Z,25.48
2019-01-10T10:52:47.158Z,25.66
2019-01-10T10:55:14.676Z,25.29
2019-01-10T10:57:42.210Z,25.10
2019-01-10T11:00:11.784Z,25.22
2019-01-10T11:02:39.310Z,25.27
2019-01-10T11:05:06.812Z,25.31
2019-01-10T11:07:34.344Z,25.21
2019-01-10T11:10:01.858Z,25.25
2019-01-10T11:12:29.377Z,25.32
2019-01-10T11:14:56.882Z,25.31
2019-01-10T11:17:24.420Z,25.29
2019-01-10T11:19:51.966Z,25.17
2019-01-10T11:22:19.468Z,25.20
2019-01-10T11:24:46.990Z,25.07
2019-01-10T11:27:14.494Z,25.17
2019-01-10T11:29:42.006Z,25.21
2019-01-10T11:32:13.315Z,25.27
2019-01-10T11:34:38.786Z,25.21
2019-01-10T11:37:06.314Z,25.20
2019-01-10T11:39:33.899Z,25.17
2019-01-10T11:42:01.392Z,25.00
2019-01-10T11:44:28.938Z,25.19
2019-01-10T11:46:56.443Z,25.16
2019-01-10T11:49:23.939Z,24.96
2019-01-10T11:51:51.475Z,25.24
2019-01-10T11:54:18.995Z,25.18
2019-01-10T11:56:46.526Z,25.25
2019-01-10T11:59:14.080Z,25.27
2019-01-10T12:01:41.609Z,25.23
2019-01-10T12:04:09.110Z,25.34
2019-01-10T12:06:36.614Z,25.23
2019-01-10T12:09:06.006Z,25.30
2019-01-10T12:11:33.606Z,25.34
2019-01-10T12:14:01.106Z,25.28
2019-01-10T12:16:28.960Z,25.38
2019-01-10T12:18:59.429Z,25.67
2019-01-10T12:21:25.748Z,25.48
2019-01-10T12:23:53.287Z,25.43
2019-01-10T12:26:20.836Z,25.37
2019-01-10T12:28:48.345Z,25.28
2019-01-10T12:31:15.876Z,25.13
2019-01-10T12:33:43.378Z,25.14
2019-01-10T12:36:11.029Z,25.11
2019-01-10T12:38:38.526Z,25.15
2019-01-10T12:41:06.026Z,25.24
2019-01-10T12:43:33.578Z,25.24
2019-01-10T12:46:01.111Z,25.33
2019-01-10T12:48:28.649Z,25.35
2019-01-10T12:50:56.161Z,25.45
2019-01-10T12:53:23.682Z,25.57
2019-01-10T12:55:51.184Z,25.48
2019-01-10T12:58:18.717Z,25.48
2019-01-10T13:00:46.211Z,25.52
2019-01-10T13:03:13.755Z,25.39
2019-01-10T13:05:41.297Z,25.49
2019-01-10T13:08:08.803Z,25.45
2019-01-10T13:10:36.320Z,25.45
2019-01-10T13:13:03.839Z,25.40
2019-01-10T13:15:31.349Z,25.31
2019-01-10T13:17:58.861Z,25.29
2019-01-10T13:20:26.490Z,25.45
2019-01-10T13:22:54.026Z,25.42
2019-01-10T13:25:21.546Z,25.35
2019-01-10T13:27:49.543Z,25.60
2019-01-10T13:30:18.026Z,25.34
2019-01-10T13:32:45.568Z,25.40
2019-01-10T13:35:13.080Z,25.44
2019-01-10T13:37:40.625Z,25.56
2019-01-10T13:40:08.994Z,25.58
2019-01-10T13:42:36.616Z,25.74
2019-01-10T13:45:04.861Z,25.75
2019-01-10T13:47:32.541Z,25.78
2019-01-10T13:50:00.102Z,25.87
2019-01-10T13:52:27.922Z,25.90
2019-01-10T13:54:55.479Z,25.95
2019-01-10T13:57:23.012Z,25.94
2019-01-10T13:59:50.549Z,25.96
2019-01-10T14:02:18.066Z,25.85
2019-01-10T14:04:45.569Z,25.85
2019-01-10T14:07:13.295Z,25.88
2019-01-10T14:09:40.805Z,26.04
2019-01-10T14:12:08.323Z,25.97
2019-01-10T14:14:35.853Z,25.94
2019-01-10T14:17:03.348Z,25.93
2019-01-10T14:19:30.891Z,26.12
2019-01-10T14:21:58.401Z,26.20
2019-01-10T14:24:25.928Z,26.23
2019-01-10T14:26:53.472Z,26.31
2019-01-10T14:29:20.994Z,26.41
2019-01-10T14:31:50.565Z,26.70
2019-01-10T14:34:17.857Z,26.66
2019-01-10T14:36:45.372Z,26.61
2019-01-10T14:39:12.883Z,26.58
2019-01-10T14:41:40.430Z,26.52
2019-01-10T14:44:07.915Z,26.53
2019-01-10T14:46:35.467Z,26.53
2019-01-10T14:49:02.953Z,26.21
2019-01-10T14:51:30.491Z,26.22
2019-01-10T14:53:58.003Z,26.15
2019-01-10T14:56:25.615Z,26.06
2019-01-10T14:58:53.146Z,26.29
2019-01-10T15:01:20.741Z,26.18
2019-01-10T15:03:48.248Z,26.16
2019-01-10T15:06:15.759Z,26.23
2019-01-10T15:08:43.293Z,26.22
2019-01-10T15:11:10.822Z,26.24
2019-01-10T15:13:38.366Z,26.26
2019-01-10T15:16:06.065Z,26.33
2019-01-10T15:18:33.563Z,26.30
2019-01-10T15:21:01.101Z,26.32
2019-01-10T15:23:28.628Z,26.35
2019-01-10T15:25:56.119Z,26.34
2019-01-10T15:28:23.668Z,26.34
2019-01-10T15:30:51.199Z,26.31
2019-01-10T15:33:18.700Z,26.32
2019-01-10T15:35:46.207Z,26.36
2019-01-10T15:38:14.095Z,26.28
2019-01-10T15:40:41.735Z,26.40
2019-01-10T15:43:09.248Z,26.23
2019-01-10T15:45:36.775Z,26.09
2019-01-10T15:48:04.305Z,25.99
2019-01-10T15:50:31.818Z,25.85
2019-01-10T15:52:59.386Z,26.03
2019-01-10T15:55:26.872Z,25.92
2019-01-10T15:57:54.431Z,25.88
2019-01-10T16:00:22.713Z,26.17
2019-01-10T16:02:50.380Z,26.02
2019-01-10T16:05:17.918Z,25.97
2019-01-10T16:07:45.431Z,25.93
2019-01-10T16:10:14.055Z,26.15
2019-01-10T16:12:41.558Z,25.98
2019-01-10T16:15:10.936Z,26.39
2019-01-10T16:17:38.479Z,26.53
2019-01-10T16:20:07.888Z,26.24
2019-01-10T16:22:35.394Z,25.81
2019-01-10T16:25:03.100Z,25.89
2019-01-10T16:27:30.606Z,26.19
2019-01-10T16:29:58.157Z,26.26
2019-01-10T16:32:25.626Z,25.77
2019-01-10T16:34:53.130Z,25.66
2019-01-10T16:37:20.740Z,25.50
2019-01-10T16:39:48.254Z,25.60
2019-01-10T16:42:15.766Z,25.66
2019-01-10T16:44:43.280Z,25.65
2019-01-10T16:47:10.802Z,25.68
2019-01-10T16:49:38.305Z,25.84
2019-01-10T16:52:05.840Z,25.76
2019-01-10T16:54:33.372Z,25.78
2019-01-10T16:57:00.927Z,25.55
2019-01-10T16:59:28.464Z,26.03
2019-01-10T17:01:55.978Z,26.40
2019-01-10T17:04:23.505Z,26.14
2019-01-10T17:06:51.004Z,24.63
2019-01-10T17:09:18.540Z,24.23
2019-01-10T17:11:46.049Z,24.50
2019-01-10T17:14:13.582Z,24.74
2019-01-10T17:16:41.080Z,25.04
2019-01-10T17:19:08.606Z,25.20
2019-01-10T17:21:36.130Z,25.10
2019-01-10T17:24:03.645Z,25.18
2019-01-10T17:26:31.215Z,25.38
2019-01-10T17:28:58.770Z,25.44
2019-01-10T17:31:26.291Z,25.35
2019-01-10T17:33:53.816Z,24.94
2019-01-10T17:36:21.340Z,25.28
2019-01-10T17:38:48.852Z,24.84
2019-01-10T17:41:16.379Z,24.88
2019-01-10T17:43:43.892Z,25.13
2019-01-10T17:46:11.436Z,25.21
2019-01-10T17:48:38.946Z,25.29
2019-01-10T17:51:06.447Z,25.25
2019-01-10T17:53:33.966Z,25.16
2019-01-10T17:56:01.519Z,25.16
2019-01-10T17:58:29.094Z,25.23
2019-01-10T18:00:56.606Z,25.14
2019-01-10T18:03:24.155Z,25.17
2019-01-10T18:05:51.766Z,25.31
2019-01-10T18:08:19.308Z,25.74
2019-01-10T18:10:46.810Z,25.48
2019-01-10T18:13:14.343Z,25.32
2019-01-10T18:15:41.858Z,25.32
2019-01-10T18:18:09.372Z,25.14
2019-01-10T18:20:37.900Z,25.19
2019-01-10T18:23:05.416Z,25.33
2019-01-10T18:25:33.010Z,25.34
2019-01-10T18:28:00.528Z,25.05
2019-01-10T18:30:28.043Z,24.85
2019-01-10T18:32:55.578Z,24.80
2019-01-10T18:35:26.552Z,25.06
2019-01-10T18:37:53.086Z,25.09
2019-01-10T18:40:20.786Z,25.08
2019-01-10T18:42:48.349Z,24.92
2019-01-10T18:45:17.120Z,25.02
2019-01-10T18:47:44.656Z,25.24
2019-01-10T18:50:13.781Z,25.15
2019-01-10T18:52:41.327Z,25.06
2019-01-10T18:55:08.856Z,24.93
2019-01-10T18:57:36.371Z,24.76
2019-01-10T19:00:05.539Z,24.81
2019-01-10T19:02:33.052Z,24.90
2019-01-10T19:05:00.594Z,24.52
2019-01-10T19:07:28.164Z,24.22
2019-01-10T19:09:55.704Z,24.45
2019-01-10T19:12:23.238Z,24.48
2019-01-10T19:14:50.748Z,24.17
2019-01-10T19:17:18.285Z,24.16
2019-01-10T19:19:45.802Z,24.65
2019-01-10T19:22:13.324Z,24.48
2019-01-10T19:24:40.841Z,24.44
2019-01-10T19:27:08.354Z,24.28
2019-01-10T19:29:35.886Z,23.89
2019-01-10T19:32:03.390Z,24.23
2019-01-10T19:34:30.888Z,24.57
2019-01-10T19:36:58.412Z,24.66
2019-01-10T19:39:25.944Z,24.63
2019-01-10T19:41:53.551Z,24.83
2019-01-10T19:44:21.064Z,24.83
2019-01-10T19:46:48.619Z,24.83
2019-01-10T19:49:16.169Z,24.83
2019-01-10T19:51:43.660Z,24.67
2019-01-10T19:54:11.220Z,24.61
2019-01-10T19:56:38.742Z,24.83
2019-01-10T19:59:06.333Z,24.73
2019-01-10T20:01:37.486Z,24.82
2019-01-10T20:04:03.289Z,24.58
2019-01-10T20:06:30.784Z,24.85
2019-01-10T20:08:58.431Z,24.96
2019-01-10T20:11:25.934Z,24.95
2019-01-10T20:13:53.455Z,25.16
2019-01-10T20:16:20.975Z,25.14
2019-01-10T20:18:48.578Z,25.34
2019-01-10T20:21:16.079Z,25.38
2019-01-10T20:23:43.630Z,25.31
2019-01-10T20:26:11.711Z,25.35
2019-01-10T20:28:39.273Z,25.31
2019-01-10T20:31:06.798Z,24.94
2019-01-10T20:33:34.299Z,24.69
2019-01-10T20:36:01.829Z,24.52
2019-01-10T20:38:29.363Z,24.46
2019-01-10T20:40:57.130Z,24.74
2019-01-10T20:43:24.729Z,24.91
2019-01-10T20:45:52.244Z,24.46
2019-01-10T20:48:22.552Z,24.54
2019-01-10T20:50:49.101Z,24.56
2019-01-10T20:53:16.896Z,24.25
2019-01-10T20:55:44.445Z,24.43
2019-01-10T20:58:12.237Z,24.94
2019-01-10T21:00:39.834Z,24.90
2019-01-10T21:03:07.413Z,25.02
2019-01-10T21:05:34.959Z,25.26
2019-01-10T21:08:02.503Z,25.23
2019-01-10T21:10:30.608Z,25.28
2019-01-10T21:12:58.139Z,25.39
2019-01-10T21:15:26.981Z,25.25
2019-01-10T21:17:54.567Z,25.09
2019-01-10T21:20:22.101Z,25.13
2019-01-10T21:22:49.634Z,25.28
2019-01-10T21:25:17.307Z,25.40
2019-01-10T21:27:44.825Z,25.11
2019-01-10T21:30:16.294Z,25.30
2019-01-10T21:32:43.899Z,24.93
2019-01-10T21:35:11.437Z,25.04
2019-01-10T21:37:38.938Z,25.20
2019-01-10T21:40:13.697Z,25.20
2019-01-10T21:42:41.204Z,25.36
2019-01-10T21:45:12.911Z,25.37
2019-01-10T21:47:40.403Z,25.62
2019-01-10T21:50:09.565Z,25.43
2019-01-10T21:52:37.066Z,26.05
2019-01-10T21:55:06.221Z,25.51
2019-01-10T21:57:34.234Z,25.37
2019-01-10T22:00:01.857Z,25.12
2019-01-10T22:02:29.448Z,25.14
2019-01-10T22:04:58.298Z,25.22
2019-01-10T22:07:25.821Z,25.90
2019-01-10T22:09:53.379Z,25.41
2019-01-10T22:12:20.982Z,25.22
2019-01-10T22:14:48.607Z,25.12
2019-01-10T22:17:16.137Z,25.13
2019-01-10T22:19:43.645Z,24.94
2019-01-10T22:22:11.189Z,24.80
2019-01-10T22:24:38.699Z,24.46
2019-01-10T22:27:06.201Z,24.70
2019-01-10T22:29:33.729Z,24.72
2019-01-10T22:32:01.228Z,24.84
2019-01-10T22:34:28.749Z,24.79
2019-01-10T22:36:56.306Z,24.73
2019-01-10T22:39:23.790Z,24.78
2019-01-10T22:41:51.488Z,24.99
2019-01-10T22:44:18.986Z,24.82
2019-01-10T22:46:46.496Z,24.70
2019-01-10T22:49:14.013Z,24.71
2019-01-10T22:51:41.524Z,24.96
2019-01-10T22:54:09.034Z,24.82
2019-01-10T22:56:36.553Z,24.72
2019-01-10T22:59:04.082Z,24.71
2019-01-10T23:01:35.026Z,25.01
2019-01-10T23:04:02.670Z,24.94
2019-01-10T23:06:30.199Z,24.90
2019-01-10T23:08:57.735Z,24.95
2019-01-10T23:11:25.311Z,24.91
2019-01-10T23:13:53.497Z,25.30
2019-01-10T23:16:21.005Z,25.14
2019-01-10T23:18:54.118Z,25.02
2019-01-10T23:21:17.770Z,25.05
2019-01-10T23:23:45.320Z,25.36
2019-01-10T23:26:12.825Z,25.29
2019-01-10T23:28:41.060Z,25.32
2019-01-10T23:31:18.360Z,25.34
2019-01-10T23:33:45.894Z,25.07
2019-01-10T23:36:13.407Z,25.50
2019-01-10T23:38:40.930Z,25.10
2019-01-10T23:41:08.438Z,24.79
2019-01-10T23:43:35.938Z,24.76
2019-01-10T23:46:03.479Z,24.60
2019-01-10T23:48:30.970Z,24.85
2019-01-10T23:50:58.518Z,25.02
2019-01-10T23:53:26.034Z,25.07
2019-01-10T23:55:53.574Z,25.19
2019-01-10T23:58:21.072Z,25.29
